createdAt,value
2022-09-10T00:01:27.841Z,99019.88
2022-09-10T00:03:57.268Z,99022.09
2022-09-10T00:06:26.230Z,99025.84
2022-09-10T00:08:57.797Z,99023.44
2022-09-10T00:11:32.304Z,99024.50
2022-09-10T00:14:00.473Z,99019.22
2022-09-10T00:16:27.773Z,99024.50
2022-09-10T00:18:54.828Z,99018.16
2022-09-10T00:21:21.469Z,99019.00
2022-09-10T00:23:49.213Z,99014.50
2022-09-10T00:26:23.900Z,99017.38
2022-09-10T00:28:52.215Z,99021.91
2022-09-10T00:31:20.373Z,99019.69
2022-09-10T00:33:46.903Z,99014.84
2022-09-10T00:36:25.430Z,99022.19
2022-09-10T00:38:53.398Z,99026.72
2022-09-10T00:41:23.163Z,99021.31
2022-09-10T00:44:00.599Z,99023.16
2022-09-10T00:46:39.937Z,99008.78
2022-09-10T00:49:20.302Z,99015.72
2022-09-10T00:51:50.292Z,99013.53
2022-09-10T00:54:20.282Z,99014.66
2022-09-10T00:56:47.967Z,99011.25
2022-09-10T00:59:17.949Z,99016.34
2022-09-10T01:01:45.422Z,99015.53
2022-09-10T01:04:11.969Z,99013.84
2022-09-10T01:06:41.537Z,99016.47
2022-09-10T01:09:09.318Z,99013.94
2022-09-10T01:12:05.152Z,99006.25
2022-09-10T01:14:51.684Z,99012.22
2022-09-10T01:17:52.249Z,99020.28
2022-09-10T01:20:43.732Z,99010.31
2022-09-10T01:23:18.046Z,99017.16
2022-09-10T01:26:15.623Z,99017.16
2022-09-10T01:28:51.415Z,99014.56
2022-09-10T01:31:28.568Z,99020.72
2022-09-10T01:34:12.699Z,99021.91
2022-09-10T01:36:43.344Z,99018.22
2022-09-10T01:39:09.996Z,99012.16
2022-09-10T01:41:37.122Z,99024.66
2022-09-10T01:44:28.228Z,99017.84
2022-09-10T01:47:06.259Z,99020.44
2022-09-10T01:49:32.700Z,99015.38
2022-09-10T01:52:25.344Z,99017.22
2022-09-10T01:55:09.340Z,99017.84
2022-09-10T01:58:17.440Z,99013.53
2022-09-10T02:00:52.406Z,99018.91
2022-09-10T02:03:24.619Z,99014.00
2022-09-10T02:05:54.856Z,99012.00
2022-09-10T02:08:26.299Z,99009.84
2022-09-10T02:11:01.579Z,99016.53
2022-09-10T02:13:29.926Z,99018.53
2022-09-10T02:15:57.442Z,99017.03
2022-09-10T02:18:26.259Z,99020.00
2022-09-10T02:20:56.275Z,99023.84
2022-09-10T02:23:31.359Z,99022.31
2022-09-10T02:25:58.638Z,99028.88
2022-09-10T02:28:25.235Z,99019.16
2022-09-10T02:30:51.678Z,99022.13
2022-09-10T02:33:18.539Z,99013.25
2022-09-10T02:35:47.548Z,99016.25
2022-09-10T02:38:14.378Z,99016.44
2022-09-10T02:40:40.851Z,99021.16
2022-09-10T02:43:07.315Z,99017.88
2022-09-10T02:45:34.431Z,99016.41
2022-09-10T02:48:00.906Z,99023.06
2022-09-10T02:50:27.352Z,99015.53
2022-09-10T02:52:53.847Z,99020.44
2022-09-10T02:55:20.311Z,99016.28
2022-09-10T02:57:46.753Z,99013.69
2022-09-10T03:00:13.522Z,99019.16
2022-09-10T03:02:40.396Z,99014.72
2022-09-10T03:05:07.195Z,99013.09
2022-09-10T03:07:34.364Z,99019.44
2022-09-10T03:10:00.841Z,99015.88
2022-09-10T03:12:27.314Z,99015.09
2022-09-10T03:14:53.821Z,99010.94
2022-09-10T03:17:20.341Z,99014.19
2022-09-10T03:19:46.786Z,99018.03
2022-09-10T03:22:13.246Z,99018.31
2022-09-10T03:24:39.746Z,99013.97
2022-09-10T03:27:06.920Z,99016.06
2022-09-10T03:29:33.560Z,99012.56
2022-09-10T03:32:01.207Z,99013.78
2022-09-10T03:34:27.687Z,99021.09
2022-09-10T03:36:54.667Z,99015.81
2022-09-10T03:39:21.069Z,99020.41
2022-09-10T03:41:47.922Z,99025.78
2022-09-10T03:44:17.181Z,99016.81
2022-09-10T03:46:45.045Z,99016.06
2022-09-10T03:49:11.468Z,99019.03
2022-09-10T03:51:37.933Z,99013.81
2022-09-10T03:54:05.328Z,99024.59
2022-09-10T03:56:32.170Z,99024.59
2022-09-10T03:58:58.660Z,99024.59
2022-09-10T04:01:25.228Z,99026.66
2022-09-10T04:03:55.529Z,99029.53
2022-09-10T04:06:22.237Z,99026.16
2022-09-10T04:08:50.175Z,99028.75
2022-09-10T04:11:16.613Z,99028.94
2022-09-10T04:13:43.117Z,99029.00
2022-09-10T04:16:09.894Z,99032.47
2022-09-10T04:18:36.437Z,99028.75
2022-09-10T04:21:03.053Z,99034.81
2022-09-10T04:23:29.788Z,99019.44
2022-09-10T04:25:57.105Z,99034.81
2022-09-10T04:28:24.192Z,99030.03
2022-09-10T04:30:51.211Z,99030.28
2022-09-10T04:33:17.647Z,99030.63
2022-09-10T04:35:44.083Z,99023.69
2022-09-10T04:38:11.148Z,99025.91
2022-09-10T04:40:38.415Z,99024.59
2022-09-10T04:43:05.004Z,99031.22
2022-09-10T04:45:33.066Z,99032.22
2022-09-10T04:48:02.581Z,99034.28
2022-09-10T04:50:31.466Z,99034.06
2022-09-10T04:52:59.036Z,99037.97
2022-09-10T04:55:26.147Z,99030.69
2022-09-10T04:57:53.023Z,99027.72
2022-09-10T05:00:19.559Z,99029.72
2022-09-10T05:02:46.680Z,99033.53
2022-09-10T05:05:13.879Z,99033.16
2022-09-10T05:07:40.335Z,99034.38
2022-09-10T05:10:10.479Z,99039.19
2022-09-10T05:12:38.507Z,99044.31
2022-09-10T05:15:06.625Z,99041.03
2022-09-10T05:17:33.565Z,99036.44
2022-09-10T05:20:00.152Z,99041.72
2022-09-10T05:22:33.669Z,99043.19
2022-09-10T05:25:02.239Z,99041.94
2022-09-10T05:27:28.695Z,99040.91
2022-09-10T05:29:55.124Z,99040.78
2022-09-10T05:32:21.540Z,99031.81
2022-09-10T05:34:48.647Z,99036.25
2022-09-10T05:37:16.250Z,99045.69
2022-09-10T05:39:42.788Z,99049.94
2022-09-10T05:42:09.391Z,99044.00
2022-09-10T05:44:35.851Z,99039.47
2022-09-10T05:47:02.392Z,99043.91
2022-09-10T05:49:30.455Z,99042.22
2022-09-10T05:51:58.045Z,99044.75
2022-09-10T05:54:24.874Z,99044.53
2022-09-10T05:56:51.602Z,99045.38
2022-09-10T05:59:18.096Z,99044.19
2022-09-10T06:01:45.619Z,99043.69
2022-09-10T06:04:12.181Z,99042.78
2022-09-10T06:06:38.618Z,99040.34
2022-09-10T06:09:05.108Z,99052.19
2022-09-10T06:11:31.532Z,99055.13
2022-09-10T06:13:58.221Z,99046.59
2022-09-10T06:16:24.695Z,99050.06
2022-09-10T06:18:51.413Z,99051.56
2022-09-10T06:21:19.221Z,99047.38
2022-09-10T06:23:46.455Z,99052.97
2022-09-10T06:26:17.088Z,99054.50
2022-09-10T06:28:43.533Z,99050.06
2022-09-10T06:31:17.140Z,99051.38
2022-09-10T06:33:44.316Z,99052.75
2022-09-10T06:36:11.405Z,99055.47
2022-09-10T06:38:37.983Z,99058.06
2022-09-10T06:41:07.044Z,99056.88
2022-09-10T06:43:36.715Z,99056.88
2022-09-10T06:46:40.678Z,99054.28
2022-09-10T06:49:02.908Z,99055.13
2022-09-10T06:51:30.192Z,99058.38
2022-09-10T06:53:57.807Z,99053.16
2022-09-10T06:56:24.667Z,99051.09
2022-09-10T06:58:51.856Z,99052.06
2022-09-10T07:01:20.549Z,99041.56
2022-09-10T07:03:47.428Z,99043.41
2022-09-10T07:06:16.767Z,99047.50
2022-09-10T07:08:43.574Z,99044.06
2022-09-10T07:11:15.195Z,99048.28
2022-09-10T07:13:43.139Z,99053.25
2022-09-10T07:16:10.242Z,99045.94
2022-09-10T07:18:36.921Z,99050.47
2022-09-10T07:21:12.220Z,99051.75
2022-09-10T07:23:41.717Z,99055.97
2022-09-10T07:26:13.169Z,99053.47
2022-09-10T07:28:42.437Z,99048.13
2022-09-10T07:31:16.767Z,99040.91
2022-09-10T07:33:44.331Z,99046.38
2022-09-10T07:36:12.263Z,99042.28
2022-09-10T07:38:39.645Z,99048.59
2022-09-10T07:41:07.693Z,99057.47
2022-09-10T07:43:34.570Z,99051.50
2022-09-10T07:46:04.147Z,99045.47
2022-09-10T07:48:31.179Z,99043.53
2022-09-10T07:51:02.640Z,99045.16
2022-09-10T07:53:29.223Z,99040.88
2022-09-10T07:56:03.000Z,99056.13
2022-09-10T07:58:31.836Z,99052.31
2022-09-10T08:00:59.787Z,99059.00
2022-09-10T08:03:27.722Z,99049.75
2022-09-10T08:05:55.070Z,99056.63
2022-09-10T08:08:22.410Z,99058.50
2022-09-10T08:10:49.753Z,99054.41
2022-09-10T08:13:16.557Z,99065.53
2022-09-10T08:15:46.089Z,99060.59
2022-09-10T08:18:13.656Z,99063.97
2022-09-10T08:20:40.462Z,99063.69
2022-09-10T08:23:07.873Z,99068.16
2022-09-10T08:25:34.907Z,99062.88
2022-09-10T08:28:01.446Z,99061.19
2022-09-10T08:30:28.867Z,99059.13
2022-09-10T08:32:56.188Z,99063.19
2022-09-10T08:35:22.803Z,99060.59
2022-09-10T08:37:49.318Z,99067.28
2022-09-10T08:40:16.432Z,99067.41
2022-09-10T08:42:49.299Z,99058.13
2022-09-10T08:45:44.687Z,99073.69
2022-09-10T08:48:23.862Z,99067.50
2022-09-10T08:50:57.449Z,99067.09
2022-09-10T08:53:29.872Z,99054.13
2022-09-10T08:56:02.234Z,99063.28
2022-09-10T08:58:41.248Z,99063.25
2022-09-10T09:01:18.349Z,99056.94
2022-09-10T09:03:47.205Z,99065.09
2022-09-10T09:06:37.736Z,99069.41
2022-09-10T09:09:05.572Z,99071.16
2022-09-10T09:11:45.922Z,99066.84
2022-09-10T09:14:25.052Z,99075.25
2022-09-10T09:17:05.970Z,99068.28
2022-09-10T09:19:40.757Z,99072.41
2022-09-10T09:22:40.074Z,99070.53
2022-09-10T09:25:21.695Z,99077.19
2022-09-10T09:27:51.465Z,99077.66
2022-09-10T09:30:32.062Z,99066.69
2022-09-10T09:33:09.606Z,99070.03
2022-09-10T09:35:45.354Z,99070.72
2022-09-10T09:38:24.909Z,99067.31
2022-09-10T09:41:07.309Z,99073.97
2022-09-10T09:43:54.635Z,99068.81
2022-09-10T09:46:22.961Z,99067.44
2022-09-10T09:48:54.123Z,99065.78
2022-09-10T09:51:22.116Z,99064.44
2022-09-10T09:54:12.130Z,99056.81
2022-09-10T09:56:45.735Z,99055.16
2022-09-10T09:59:26.543Z,99059.50
2022-09-10T10:01:55.574Z,99056.16
2022-09-10T10:04:25.676Z,99055.22
2022-09-10T10:06:57.768Z,99053.66
2022-09-10T10:09:35.548Z,99051.25
2022-09-10T10:12:04.691Z,99055.56
2022-09-10T10:14:31.077Z,99041.53
2022-09-10T10:17:01.088Z,99051.44
2022-09-10T10:19:39.073Z,99039.47
2022-09-10T10:22:14.652Z,99047.19
2022-09-10T10:24:45.494Z,99050.13
2022-09-10T10:27:36.391Z,99041.31
2022-09-10T10:30:21.590Z,99038.28
2022-09-10T10:32:58.265Z,99033.31
2022-09-10T10:35:35.528Z,99035.50
2022-09-10T10:38:11.442Z,99031.28
2022-09-10T10:40:45.883Z,99039.09
2022-09-10T10:43:50.713Z,99029.19
2022-09-10T10:46:21.542Z,99029.63
2022-09-10T10:49:06.290Z,99031.88
2022-09-10T10:52:13.855Z,99038.47
2022-09-10T10:55:07.075Z,99030.34
2022-09-10T10:58:03.243Z,99024.13
2022-09-10T11:00:41.363Z,99016.72
2022-09-10T11:03:18.483Z,99011.59
2022-09-10T11:05:49.325Z,99012.44
2022-09-10T11:08:27.880Z,99006.97
2022-09-10T11:11:02.575Z,99005.13
2022-09-10T11:13:53.625Z,99001.84
2022-09-10T11:16:30.048Z,99005.56
2022-09-10T11:19:01.621Z,98996.78
2022-09-10T11:21:31.857Z,98992.91
2022-09-10T11:24:16.804Z,98992.16
2022-09-10T11:26:51.476Z,98993.16
2022-09-10T11:29:44.384Z,98992.75
2022-09-10T11:32:30.171Z,98992.19
2022-09-10T11:35:28.694Z,98992.66
2022-09-10T11:38:22.279Z,98992.63
2022-09-10T11:41:18.748Z,98989.81
2022-09-10T11:44:06.775Z,99000.56
2022-09-10T11:46:44.765Z,98992.69
2022-09-10T11:49:32.516Z,98982.56
2022-09-10T11:51:59.103Z,98975.72
2022-09-10T11:54:35.523Z,98975.72
2022-09-10T11:57:05.207Z,98970.22
2022-09-10T12:00:00.103Z,98964.50
2022-09-10T12:02:32.761Z,98964.66
2022-09-10T12:05:25.817Z,98970.38
2022-09-10T12:08:10.601Z,98964.63
2022-09-10T12:11:00.074Z,98963.75
2022-09-10T12:13:26.943Z,98971.19
2022-09-10T12:15:58.280Z,98964.47
2022-09-10T12:18:31.950Z,98958.44
2022-09-10T12:21:05.749Z,98959.00
2022-09-10T12:23:35.548Z,98959.84
2022-09-10T12:26:19.895Z,98965.69
2022-09-10T12:28:49.411Z,98969.56
2022-09-10T12:31:17.796Z,98967.94
2022-09-10T12:33:44.274Z,98961.75
2022-09-10T12:36:35.034Z,98965.63
2022-09-10T12:39:27.539Z,98970.34
2022-09-10T12:41:57.951Z,98967.69
2022-09-10T12:44:44.013Z,98958.00
2022-09-10T12:47:16.580Z,98953.88
2022-09-10T12:49:50.470Z,98960.44
2022-09-10T12:52:35.297Z,98960.41
2022-09-10T12:55:31.973Z,98957.50
2022-09-10T12:58:29.183Z,98957.59
2022-09-10T13:00:55.884Z,98957.53
2022-09-10T13:03:24.272Z,98961.00
2022-09-10T13:05:54.351Z,98960.50
2022-09-10T13:08:27.776Z,98959.09
2022-09-10T13:10:59.878Z,98956.03
2022-09-10T13:13:54.636Z,98956.31
2022-09-10T13:16:26.815Z,98941.25
2022-09-10T13:18:57.012Z,98945.38
2022-09-10T13:21:23.600Z,98942.16
2022-09-10T13:23:54.911Z,98948.19
2022-09-10T13:26:31.167Z,98943.31
2022-09-10T13:29:04.842Z,98950.09
2022-09-10T13:31:36.033Z,98939.38
2022-09-10T13:34:27.305Z,98935.38
2022-09-10T13:37:17.696Z,98934.81
2022-09-10T13:40:22.258Z,98928.19
2022-09-10T13:43:11.859Z,98938.81
2022-09-10T13:45:42.238Z,98930.50
2022-09-10T13:48:22.771Z,98930.06
2022-09-10T13:51:16.995Z,98934.91
2022-09-10T13:53:46.994Z,98930.91
2022-09-10T13:56:18.937Z,98934.03
2022-09-10T13:58:50.663Z,98939.91
2022-09-10T14:01:17.854Z,98941.50
2022-09-10T14:03:45.405Z,98931.72
2022-09-10T14:06:23.284Z,98944.88
2022-09-10T14:08:57.559Z,98938.16
2022-09-10T14:11:28.121Z,98929.47
2022-09-10T14:13:58.210Z,98935.59
2022-09-10T14:16:32.531Z,98930.75
2022-09-10T14:19:05.238Z,98922.56
2022-09-10T14:21:32.082Z,98919.31
2022-09-10T14:23:59.472Z,98912.50
2022-09-10T14:26:30.124Z,98915.41
2022-09-10T14:28:58.860Z,98921.13
2022-09-10T14:31:25.381Z,98913.09
2022-09-10T14:33:53.330Z,98913.38
2022-09-10T14:36:28.828Z,98907.19
2022-09-10T14:39:14.938Z,98916.81
2022-09-10T14:41:42.011Z,98910.44
2022-09-10T14:44:24.059Z,98915.34
2022-09-10T14:47:15.393Z,98912.94
2022-09-10T14:49:44.568Z,98906.38
2022-09-10T14:52:11.420Z,98901.63
2022-09-10T14:54:38.005Z,98907.63
2022-09-10T14:57:10.013Z,98914.84
2022-09-10T14:59:38.903Z,98908.94
2022-09-10T15:02:26.737Z,98906.78
2022-09-10T15:04:53.746Z,98909.06
2022-09-10T15:07:20.513Z,98900.72
2022-09-10T15:09:47.100Z,98910.06
2022-09-10T15:12:28.046Z,98906.41
2022-09-10T15:14:54.895Z,98914.78
2022-09-10T15:17:21.872Z,98915.19
2022-09-10T15:19:48.874Z,98919.63
2022-09-10T15:22:23.382Z,98916.41
2022-09-10T15:25:08.582Z,98914.44
2022-09-10T15:27:36.483Z,98926.75
2022-09-10T15:30:03.112Z,98921.88
2022-09-10T15:32:30.797Z,98926.38
2022-09-10T15:34:57.860Z,98922.94
2022-09-10T15:37:24.415Z,98918.66
2022-09-10T15:39:51.768Z,98924.78
2022-09-10T15:42:18.339Z,98927.09
2022-09-10T15:44:44.831Z,98930.34
2022-09-10T15:47:11.284Z,98936.94
2022-09-10T15:49:37.775Z,98941.41
2022-09-10T15:52:04.980Z,98944.84
2022-09-10T15:54:31.539Z,98949.84
2022-09-10T15:56:59.235Z,98954.31
2022-09-10T15:59:25.721Z,98952.75
2022-09-10T16:01:52.271Z,98953.59
2022-09-10T16:04:18.788Z,98955.19
2022-09-10T16:06:45.290Z,98967.31
2022-09-10T16:09:13.405Z,98964.00
2022-09-10T16:11:42.438Z,98966.38
2022-09-10T16:14:12.549Z,98964.38
2022-09-10T16:16:40.882Z,98976.47
2022-09-10T16:19:08.294Z,98967.88
2022-09-10T16:21:37.442Z,98969.53
2022-09-10T16:24:06.139Z,98966.50
2022-09-10T16:26:36.235Z,98960.97
2022-09-10T16:29:12.563Z,98979.56
2022-09-10T16:31:42.059Z,98977.13
2022-09-10T16:34:11.623Z,98971.47
2022-09-10T16:36:39.438Z,98968.44
2022-09-10T16:39:12.164Z,98968.84
2022-09-10T16:41:44.056Z,98970.81
2022-09-10T16:44:13.480Z,98973.53
2022-09-10T16:46:40.409Z,98975.06
2022-09-10T16:49:11.766Z,98970.03
2022-09-10T16:51:39.359Z,98979.06
2022-09-10T16:54:07.095Z,98983.75
2022-09-10T16:56:40.043Z,98979.59
2022-09-10T16:59:08.230Z,98988.25
2022-09-10T17:01:35.759Z,98992.09
2022-09-10T17:04:09.428Z,98993.38
2022-09-10T17:06:36.861Z,99001.31
2022-09-10T17:09:03.791Z,98995.03
2022-09-10T17:11:31.783Z,98991.63
2022-09-10T17:14:02.760Z,98993.47
2022-09-10T17:16:37.806Z,98993.78
2022-09-10T17:19:07.148Z,98997.09
2022-09-10T17:21:35.691Z,98993.28
2022-09-10T17:24:04.325Z,98994.06
2022-09-10T17:26:32.871Z,98991.09
2022-09-10T17:29:07.512Z,98994.47
2022-09-10T17:31:35.082Z,98995.81
2022-09-10T17:34:02.220Z,98994.56
2022-09-10T17:36:28.819Z,98988.78
2022-09-10T17:38:56.300Z,98996.66
2022-09-10T17:41:23.607Z,98993.59
2022-09-10T17:43:50.876Z,98988.13
2022-09-10T17:46:20.697Z,98988.00
2022-09-10T17:48:48.313Z,98990.69
2022-09-10T17:51:18.010Z,98986.00
2022-09-10T17:53:44.613Z,98991.16
2022-09-10T17:56:13.333Z,98987.19
2022-09-10T17:58:40.016Z,98994.19
2022-09-10T18:01:11.974Z,98991.22
2022-09-10T18:03:40.763Z,98994.38
2022-09-10T18:06:09.408Z,99000.41
2022-09-10T18:08:37.708Z,99001.84
2022-09-10T18:11:20.350Z,99003.28
2022-09-10T18:13:50.913Z,99009.16
2022-09-10T18:16:21.491Z,99004.28
2022-09-10T18:19:00.015Z,99008.56
2022-09-10T18:21:29.516Z,99005.53
2022-09-10T18:24:00.201Z,99004.38
2022-09-10T18:26:30.022Z,99006.69
2022-09-10T18:29:02.799Z,99001.72
2022-09-10T18:31:32.917Z,99002.25
2022-09-10T18:34:01.240Z,99009.78
2022-09-10T18:36:28.758Z,99025.44
2022-09-10T18:38:55.195Z,99013.38
2022-09-10T18:41:22.015Z,99014.47
2022-09-10T18:43:49.978Z,99017.59
2022-09-10T18:46:17.206Z,99016.97
2022-09-10T18:48:44.296Z,99018.25
2022-09-10T18:51:12.856Z,99014.91
2022-09-10T18:53:40.798Z,99018.91
2022-09-10T18:56:16.227Z,99024.84
2022-09-10T18:58:48.565Z,99029.50
2022-09-10T19:01:15.382Z,99033.31
2022-09-10T19:03:43.842Z,99030.47
2022-09-10T19:06:12.424Z,99042.28
2022-09-10T19:08:45.532Z,99036.97
2022-09-10T19:11:17.273Z,99043.56
2022-09-10T19:13:48.745Z,99047.34
2022-09-10T19:16:15.552Z,99052.00
2022-09-10T19:18:43.550Z,99052.16
2022-09-10T19:21:10.518Z,99048.94
2022-09-10T19:23:37.491Z,99050.13
2022-09-10T19:26:03.987Z,99045.13
2022-09-10T19:28:33.599Z,99054.31
2022-09-10T19:31:05.014Z,99043.72
2022-09-10T19:33:32.868Z,99052.78
2022-09-10T19:36:08.808Z,99049.13
2022-09-10T19:38:37.811Z,99053.56
2022-09-10T19:41:09.966Z,99048.91
2022-09-10T19:43:36.768Z,99054.09
2022-09-10T19:46:04.254Z,99053.91
2022-09-10T19:48:30.851Z,99053.69
2022-09-10T19:50:57.496Z,99062.44
2022-09-10T19:53:23.934Z,99057.03
2022-09-10T19:55:51.173Z,99057.03
2022-09-10T19:58:18.229Z,99047.19
2022-09-10T20:00:47.426Z,99048.94
2022-09-10T20:03:15.183Z,99045.44
2022-09-10T20:05:46.214Z,99049.88
2022-09-10T20:08:12.700Z,99047.19
2022-09-10T20:10:39.166Z,99039.19
2022-09-10T20:13:06.125Z,99040.16
2022-09-10T20:15:32.778Z,99038.53
2022-09-10T20:17:59.958Z,99039.31
2022-09-10T20:20:26.469Z,99045.38
2022-09-10T20:22:54.306Z,99034.63
2022-09-10T20:25:20.774Z,99040.94
2022-09-10T20:27:47.339Z,99035.41
2022-09-10T20:30:13.822Z,99036.38
2022-09-10T20:32:40.976Z,99030.97
2022-09-10T20:35:07.824Z,99029.16
2022-09-10T20:37:34.543Z,99030.19
2022-09-10T20:40:01.302Z,99035.41
2022-09-10T20:42:28.114Z,99029.16
2022-09-10T20:44:55.496Z,99030.38
2022-09-10T20:47:24.264Z,99026.78
2022-09-10T20:49:50.682Z,99031.22
2022-09-10T20:52:17.501Z,99030.25
2022-09-10T20:54:43.845Z,99029.94
2022-09-10T20:57:11.716Z,99029.94
2022-09-10T20:59:38.187Z,99022.50
2022-09-10T21:02:04.788Z,99029.16
2022-09-10T21:04:32.802Z,99025.94
2022-09-10T21:06:59.268Z,99024.97
2022-09-10T21:09:25.806Z,99027.50
2022-09-10T21:11:52.298Z,99024.28
2022-09-10T21:14:18.771Z,99027.63
2022-09-10T21:16:47.202Z,99025.91
2022-09-10T21:19:15.680Z,99022.63
2022-09-10T21:21:44.920Z,99025.97
2022-09-10T21:24:14.287Z,99028.78
2022-09-10T21:26:43.374Z,99023.38
2022-09-10T21:29:15.245Z,99028.56
2022-09-10T21:31:42.516Z,99028.78
2022-09-10T21:34:09.169Z,99028.47
2022-09-10T21:36:38.335Z,99030.09
2022-09-10T21:39:07.409Z,99026.75
2022-09-10T21:41:42.548Z,99032.47
2022-09-10T21:44:14.267Z,99034.13
2022-09-10T21:46:41.932Z,99033.38
2022-09-10T21:49:08.863Z,99033.25
2022-09-10T21:51:35.263Z,99035.94
2022-09-10T21:54:02.009Z,99036.41
2022-09-10T21:56:29.752Z,99035.75
2022-09-10T21:58:59.135Z,99038.91
2022-09-10T22:01:31.348Z,99042.56
2022-09-10T22:04:02.945Z,99047.97
2022-09-10T22:06:32.800Z,99051.56
2022-09-10T22:09:01.670Z,99046.38
2022-09-10T22:11:32.096Z,99041.94
2022-09-10T22:14:18.777Z,99056.22
2022-09-10T22:16:45.853Z,99055.59
2022-09-10T22:19:14.965Z,99053.63
2022-09-10T22:21:41.585Z,99057.53
2022-09-10T22:24:10.785Z,99052.31
2022-09-10T22:26:42.437Z,99065.75
2022-09-10T22:29:09.716Z,99050.94
2022-09-10T22:31:36.787Z,99057.69
2022-09-10T22:34:07.216Z,99060.69
2022-09-10T22:36:36.376Z,99054.22
2022-09-10T22:39:05.785Z,99057.88
2022-09-10T22:41:34.372Z,99066.66
2022-09-10T22:44:01.520Z,99063.41
2022-09-10T22:46:28.564Z,99067.06
2022-09-10T22:48:56.254Z,99066.53
2022-09-10T22:51:25.948Z,99067.06
2022-09-10T22:53:53.899Z,99075.28
2022-09-10T22:56:22.188Z,99074.50
2022-09-10T22:58:52.859Z,99075.28
2022-09-10T23:01:22.770Z,99074.22
2022-09-10T23:03:50.357Z,99073.66
2022-09-10T23:06:19.511Z,99069.41
2022-09-10T23:08:50.314Z,99077.84
2022-09-10T23:11:21.120Z,99070.06
2022-09-10T23:13:57.487Z,99082.91
2022-09-10T23:16:28.921Z,99074.31
2022-09-10T23:18:56.972Z,99071.94
2022-09-10T23:21:25.451Z,99080.25
2022-09-10T23:23:54.713Z,99085.66
2022-09-10T23:26:22.267Z,99081.31
2022-09-10T23:28:49.339Z,99077.94
2022-09-10T23:31:21.690Z,99074.69
2022-09-10T23:33:59.670Z,99081.28
2022-09-10T23:36:27.804Z,99073.63
2022-09-10T23:38:54.512Z,99080.53
2022-09-10T23:41:21.628Z,99086.06
2022-09-10T23:43:48.079Z,99079.97
2022-09-10T23:46:14.936Z,99088.09
2022-09-10T23:48:42.702Z,99085.31
2022-09-10T23:51:13.657Z,99078.63
2022-09-10T23:53:40.487Z,99080.34
2022-09-10T23:56:07.053Z,99082.53
2022-09-10T23:58:33.513Z,99081.16
